createdAt,value
2018-05-17T00:01:05.042Z,17.20
2018-05-17T00:03:36.081Z,16.63
2018-05-17T00:06:04.482Z,17.90
2018-05-17T00:08:32.833Z,16.10
2018-05-17T00:11:00.390Z,17.03
2018-05-17T00:13:27.720Z,17.60
2018-05-17T00:15:55.250Z,17.73
2018-05-17T00:18:23.301Z,17.70
2018-05-17T00:20:51.491Z,18.10
2018-05-17T00:23:19.050Z,16.60
2018-05-17T00:25:46.680Z,17.67
2018-05-17T00:28:18.373Z,17.30
2018-05-17T00:30:47.822Z,18.57
2018-05-17T00:33:15.340Z,18.07
2018-05-17T00:35:46.844Z,16.93
2018-05-17T00:38:15.053Z,17.37
2018-05-17T00:40:45.251Z,17.40
2018-05-17T00:43:12.452Z,18.30
2018-05-17T00:45:39.733Z,17.17
2018-05-17T00:48:07.011Z,17.83
2018-05-17T00:50:36.051Z,17.87
2018-05-17T00:53:21.322Z,18.07
2018-05-17T00:55:48.650Z,18.97
2018-05-17T00:58:15.871Z,19.17
2018-05-17T01:00:43.400Z,19.30
2018-05-17T01:03:11.670Z,20.90
2018-05-17T01:05:38.944Z,20.00
2018-05-17T01:08:07.462Z,21.67
2018-05-17T01:10:35.121Z,21.77
2018-05-17T01:13:02.422Z,21.03
2018-05-17T01:15:29.953Z,21.90
2018-05-17T01:17:57.370Z,21.57
2018-05-17T01:20:24.651Z,23.63
2018-05-17T01:22:52.970Z,23.67
2018-05-17T01:25:22.110Z,25.63
2018-05-17T01:27:49.371Z,24.93
2018-05-17T01:30:18.510Z,25.07
2018-05-17T01:32:45.773Z,25.07
2018-05-17T01:35:13.321Z,25.60
2018-05-17T01:37:58.520Z,27.10
2018-05-17T01:40:25.971Z,27.67
2018-05-17T01:42:53.831Z,27.50
2018-05-17T01:45:22.961Z,27.37
2018-05-17T01:47:50.220Z,25.70
2018-05-17T01:50:19.922Z,27.07
2018-05-17T01:52:47.320Z,28.60
2018-05-17T01:55:14.821Z,26.57
2018-05-17T01:57:42.361Z,29.67
2018-05-17T02:00:09.657Z,27.60
2018-05-17T02:02:37.690Z,28.40
2018-05-17T02:05:05.190Z,30.30
2018-05-17T02:07:36.190Z,28.63
2018-05-17T02:10:03.940Z,31.80
2018-05-17T02:12:33.132Z,27.87
2018-05-17T02:15:00.472Z,29.07
2018-05-17T02:17:28.256Z,28.03
2018-05-17T02:19:56.641Z,25.97
2018-05-17T02:22:24.621Z,26.67
2018-05-17T02:24:52.290Z,27.57
2018-05-17T02:27:20.980Z,30.53
2018-05-17T02:29:48.541Z,28.73
2018-05-17T02:32:16.084Z,26.40
2018-05-17T02:34:43.581Z,28.70
2018-05-17T02:37:11.894Z,28.43
2018-05-17T02:39:39.931Z,27.93
2018-05-17T02:42:08.155Z,27.93
2018-05-17T02:44:35.891Z,27.87
2018-05-17T02:47:03.530Z,28.47
2018-05-17T02:49:31.674Z,30.27
2018-05-17T02:51:59.200Z,31.33
2018-05-17T02:54:27.033Z,28.37
2018-05-17T02:56:54.402Z,28.77
2018-05-17T02:59:21.883Z,28.57
2018-05-17T03:01:49.262Z,27.30
2018-05-17T03:04:16.733Z,26.80
2018-05-17T03:06:44.261Z,25.30
2018-05-17T03:09:11.792Z,25.37
2018-05-17T03:11:39.381Z,24.23
2018-05-17T03:14:06.925Z,24.20
2018-05-17T03:16:34.303Z,21.83
2018-05-17T03:19:01.711Z,21.47
2018-05-17T03:21:29.884Z,21.63
2018-05-17T03:23:57.432Z,22.10
2018-05-17T03:26:26.115Z,20.03
2018-05-17T03:28:53.450Z,20.47
2018-05-17T03:31:20.842Z,17.97
2018-05-17T03:33:48.070Z,17.67
2018-05-17T03:36:16.361Z,17.57
2018-05-17T03:38:43.602Z,16.40
2018-05-17T03:41:12.930Z,16.27
2018-05-17T03:43:40.492Z,15.73
2018-05-17T03:46:09.052Z,16.10
2018-05-17T03:48:39.241Z,16.00
2018-05-17T03:51:06.682Z,14.83
2018-05-17T03:53:36.644Z,14.73
2018-05-17T03:56:05.211Z,14.10
2018-05-17T03:58:33.720Z,13.67
2018-05-17T04:01:19.267Z,13.80
2018-05-17T04:04:04.503Z,14.07
2018-05-17T04:06:42.807Z,13.63
2018-05-17T04:09:11.381Z,13.93
2018-05-17T04:11:40.736Z,14.93
2018-05-17T04:14:08.201Z,14.53
2018-05-17T04:16:36.180Z,16.40
2018-05-17T04:19:04.248Z,14.43
2018-05-17T04:21:32.320Z,15.27
2018-05-17T04:24:00.441Z,15.53
2018-05-17T04:26:27.880Z,16.20
2018-05-17T04:28:56.992Z,15.57
2018-05-17T04:31:24.382Z,16.63
2018-05-17T04:33:52.692Z,15.80
2018-05-17T04:36:20.380Z,16.33
2018-05-17T04:38:47.821Z,16.53
2018-05-17T04:41:15.271Z,16.37
2018-05-17T04:43:42.611Z,18.03
2018-05-17T04:46:11.031Z,17.60
2018-05-17T04:48:39.511Z,16.93
2018-05-17T04:51:07.170Z,17.97
2018-05-17T04:53:34.554Z,17.93
2018-05-17T04:56:02.020Z,18.10
2018-05-17T04:58:29.394Z,18.37
2018-05-17T05:00:57.661Z,18.03
2018-05-17T05:03:24.941Z,17.93
2018-05-17T05:05:55.711Z,18.37
2018-05-17T05:08:23.221Z,19.43
2018-05-17T05:10:50.570Z,18.23
2018-05-17T05:13:19.078Z,20.37
2018-05-17T05:15:48.361Z,19.90
2018-05-17T05:18:15.692Z,19.33
2018-05-17T05:20:44.001Z,19.80
2018-05-17T05:23:11.362Z,21.07
2018-05-17T05:25:39.390Z,19.87
2018-05-17T05:28:06.781Z,21.47
2018-05-17T05:30:34.052Z,21.17
2018-05-17T05:33:02.141Z,21.17
2018-05-17T05:35:29.732Z,22.70
2018-05-17T05:37:58.570Z,20.20
2018-05-17T05:40:25.981Z,20.13
2018-05-17T05:42:57.392Z,20.83
2018-05-17T05:45:24.741Z,21.50
2018-05-17T05:47:52.372Z,19.90
2018-05-17T05:50:19.810Z,19.60
2018-05-17T05:52:48.103Z,18.40
2018-05-17T05:55:15.371Z,19.43
2018-05-17T05:57:42.952Z,19.03
2018-05-17T06:00:11.441Z,19.77
2018-05-17T06:02:38.877Z,19.33
2018-05-17T06:05:06.102Z,19.47
2018-05-17T06:07:33.812Z,19.43
2018-05-17T06:10:02.562Z,18.10
2018-05-17T06:12:30.802Z,18.17
2018-05-17T06:14:58.031Z,17.20
2018-05-17T06:17:28.155Z,17.67
2018-05-17T06:19:56.620Z,17.07
2018-05-17T06:22:27.522Z,16.93
2018-05-17T06:24:59.210Z,17.57
2018-05-17T06:27:26.850Z,16.80
2018-05-17T06:29:54.343Z,17.67
2018-05-17T06:32:22.960Z,16.63
2018-05-17T06:34:50.360Z,17.73
2018-05-17T06:37:19.671Z,17.30
2018-05-17T06:39:49.471Z,16.07
2018-05-17T06:42:18.081Z,17.43
2018-05-17T06:44:45.442Z,18.07
2018-05-17T06:47:12.911Z,18.17
2018-05-17T06:49:41.211Z,18.53
2018-05-17T06:52:10.400Z,17.80
2018-05-17T06:54:40.113Z,18.50
2018-05-17T06:57:07.279Z,18.70
2018-05-17T06:59:34.594Z,19.40
2018-05-17T07:02:01.865Z,18.90
2018-05-17T07:04:29.123Z,17.27
2018-05-17T07:06:57.184Z,18.43
2018-05-17T07:09:26.670Z,18.80
2018-05-17T07:11:54.230Z,18.27
2018-05-17T07:14:22.712Z,20.30
2018-05-17T07:16:49.950Z,19.17
2018-05-17T07:19:17.442Z,19.00
2018-05-17T07:21:46.590Z,19.63
2018-05-17T07:24:14.076Z,21.20
2018-05-17T07:26:42.590Z,18.93
2018-05-17T07:29:10.903Z,17.40
2018-05-17T07:31:39.851Z,17.30
2018-05-17T07:34:07.100Z,18.23
2018-05-17T07:36:35.160Z,16.90
2018-05-17T07:39:05.472Z,17.57
2018-05-17T07:41:32.740Z,17.60
2018-05-17T07:44:00.070Z,17.97
2018-05-17T07:46:30.150Z,17.87
2018-05-17T07:48:57.491Z,17.23
2018-05-17T07:51:24.790Z,18.13
2018-05-17T07:53:53.942Z,17.73
2018-05-17T07:56:21.392Z,20.10
2018-05-17T07:58:49.162Z,19.83
2018-05-17T08:01:16.482Z,19.37
2018-05-17T08:03:45.341Z,19.80
2018-05-17T08:06:13.941Z,19.50
2018-05-17T08:08:42.680Z,19.63
2018-05-17T08:11:11.110Z,18.67
2018-05-17T08:13:38.612Z,18.73
2018-05-17T08:16:06.311Z,17.57
2018-05-17T08:18:37.363Z,16.73
2018-05-17T08:21:06.014Z,17.67
2018-05-17T08:23:33.531Z,16.87
2018-05-17T08:26:05.051Z,16.07
2018-05-17T08:28:33.231Z,16.17
2018-05-17T08:31:00.641Z,15.17
2018-05-17T08:33:28.303Z,14.90
2018-05-17T08:35:57.696Z,14.57
2018-05-17T08:38:26.472Z,16.23
2018-05-17T08:40:54.892Z,15.00
2018-05-17T08:43:22.472Z,15.17
2018-05-17T08:45:49.811Z,15.53
2018-05-17T08:48:17.270Z,14.53
2018-05-17T08:50:44.610Z,13.63
2018-05-17T08:53:12.670Z,13.10
2018-05-17T08:55:40.011Z,13.97
2018-05-17T08:58:08.770Z,13.27
2018-05-17T09:00:36.921Z,13.30
2018-05-17T09:03:04.321Z,13.47
2018-05-17T09:05:31.987Z,13.80
2018-05-17T09:07:59.412Z,12.90
2018-05-17T09:10:27.630Z,13.00
2018-05-17T09:12:58.150Z,13.37
2018-05-17T09:15:26.312Z,13.67
2018-05-17T09:17:53.688Z,14.60
2018-05-17T09:20:22.277Z,14.80
2018-05-17T09:22:49.920Z,13.90
2018-05-17T09:25:17.292Z,14.53
2018-05-17T09:27:44.861Z,15.40
2018-05-17T09:30:12.472Z,13.73
2018-05-17T09:32:41.891Z,14.17
2018-05-17T09:35:09.440Z,12.47
2018-05-17T09:37:38.492Z,12.97
2018-05-17T09:40:07.612Z,13.83
2018-05-17T09:42:36.591Z,12.70
2018-05-17T09:45:04.331Z,13.20
2018-05-17T09:47:32.752Z,13.80
2018-05-17T09:50:00.851Z,13.50
2018-05-17T09:52:28.522Z,13.67
2018-05-17T09:54:56.149Z,13.67
2018-05-17T09:57:23.551Z,14.83
2018-05-17T09:59:51.972Z,15.17
2018-05-17T10:02:20.052Z,15.43
2018-05-17T10:04:47.713Z,15.40
2018-05-17T10:07:16.261Z,14.00
2018-05-17T10:09:44.830Z,14.20
2018-05-17T10:12:15.280Z,15.27
2018-05-17T10:14:42.574Z,16.03
2018-05-17T10:17:09.871Z,15.03
2018-05-17T10:19:37.271Z,14.10
2018-05-17T10:22:06.350Z,13.47
2018-05-17T10:24:34.441Z,14.27
2018-05-17T10:27:02.860Z,12.87
2018-05-17T10:29:32.079Z,13.10
2018-05-17T10:32:00.193Z,14.53
2018-05-17T10:34:28.410Z,12.60
2018-05-17T10:36:59.151Z,12.87
2018-05-17T10:39:26.642Z,12.30
2018-05-17T10:41:55.130Z,13.87
2018-05-17T10:44:22.780Z,14.90
2018-05-17T10:46:50.210Z,13.60
2018-05-17T10:49:17.490Z,14.23
2018-05-17T10:51:46.270Z,12.70
2018-05-17T10:54:13.661Z,14.00
2018-05-17T10:56:41.632Z,13.57
2018-05-17T10:59:09.172Z,14.67
2018-05-17T11:01:38.580Z,14.10
2018-05-17T11:04:06.971Z,15.03
2018-05-17T11:06:37.490Z,14.93
2018-05-17T11:09:05.910Z,14.67
2018-05-17T11:11:33.590Z,14.60
2018-05-17T11:14:02.091Z,15.97
2018-05-17T11:16:32.175Z,14.73
2018-05-17T11:18:59.569Z,14.70
2018-05-17T11:21:27.420Z,14.63
2018-05-17T11:23:55.012Z,16.53
2018-05-17T11:26:22.403Z,14.80
2018-05-17T11:28:51.254Z,15.90
2018-05-17T11:31:18.823Z,13.50
2018-05-17T11:33:46.374Z,15.50
2018-05-17T11:36:13.724Z,15.03
2018-05-17T11:38:43.103Z,15.30
2018-05-17T11:41:10.643Z,15.00
2018-05-17T11:43:38.033Z,12.93
2018-05-17T11:46:06.172Z,13.13
2018-05-17T11:48:33.685Z,12.53
2018-05-17T11:51:01.150Z,10.57
2018-05-17T11:53:28.690Z,11.03
2018-05-17T11:55:57.331Z,8.50
2018-05-17T11:58:24.750Z,8.13
2018-05-17T12:00:53.231Z,9.13
2018-05-17T12:03:20.662Z,10.10
2018-05-17T12:05:50.522Z,9.47
2018-05-17T12:08:18.105Z,9.50
2018-05-17T12:10:47.330Z,9.77
2018-05-17T12:13:14.659Z,9.80
2018-05-17T12:15:44.879Z,9.50
2018-05-17T12:18:12.170Z,10.33
2018-05-17T12:20:39.663Z,9.13
2018-05-17T12:23:08.431Z,8.97
2018-05-17T12:25:36.250Z,9.57
2018-05-17T12:28:03.640Z,9.67
2018-05-17T12:30:31.122Z,9.70
2018-05-17T12:33:00.270Z,9.73
2018-05-17T12:35:27.930Z,10.90
2018-05-17T12:37:55.335Z,10.00
2018-05-17T12:40:25.600Z,10.17
2018-05-17T12:42:54.002Z,9.23
2018-05-17T12:45:21.500Z,9.83
2018-05-17T12:47:50.455Z,10.00
2018-05-17T12:50:19.140Z,9.13
2018-05-17T12:52:47.149Z,9.90
2018-05-17T12:55:14.920Z,10.07
2018-05-17T12:57:42.099Z,10.30
2018-05-17T13:00:10.420Z,10.07
2018-05-17T13:02:37.721Z,10.20
2018-05-17T13:05:06.351Z,11.27
2018-05-17T13:07:33.950Z,12.40
2018-05-17T13:10:05.491Z,10.77
2018-05-17T13:12:32.940Z,11.03
2018-05-17T13:15:00.401Z,11.80
2018-05-17T13:17:27.969Z,10.70
2018-05-17T13:19:56.239Z,12.30
2018-05-17T13:22:24.300Z,12.00
2018-05-17T13:24:51.856Z,13.00
2018-05-17T13:27:19.612Z,12.27
2018-05-17T13:29:47.249Z,12.87
2018-05-17T13:32:14.844Z,12.57
2018-05-17T13:34:42.482Z,12.80
2018-05-17T13:37:10.034Z,12.07
2018-05-17T13:39:37.670Z,11.20
2018-05-17T13:42:06.181Z,11.57
2018-05-17T13:44:33.627Z,11.27
2018-05-17T13:47:01.571Z,10.87
2018-05-17T13:49:29.960Z,11.10
2018-05-17T13:51:57.361Z,10.50
2018-05-17T13:54:25.130Z,10.50
2018-05-17T13:56:52.932Z,10.60
2018-05-17T13:59:20.540Z,10.50
2018-05-17T14:01:48.143Z,11.30
2018-05-17T14:04:16.620Z,10.70
2018-05-17T14:06:44.330Z,10.33
2018-05-17T14:09:11.989Z,10.60
2018-05-17T14:11:39.580Z,10.60
2018-05-17T14:14:07.163Z,10.63
2018-05-17T14:16:34.870Z,11.40
2018-05-17T14:19:04.150Z,11.00
2018-05-17T14:21:31.755Z,11.33
2018-05-17T14:23:59.260Z,10.90
2018-05-17T14:26:27.691Z,10.03
2018-05-17T14:28:55.540Z,10.80
2018-05-17T14:31:23.130Z,10.63
2018-05-17T14:33:50.741Z,10.47
2018-05-17T14:36:17.956Z,11.00
2018-05-17T14:38:45.580Z,10.40
2018-05-17T14:41:13.110Z,11.30
2018-05-17T14:43:40.649Z,10.57
2018-05-17T14:46:09.558Z,9.70
2018-05-17T14:48:37.230Z,10.07
2018-05-17T14:51:04.890Z,10.50
2018-05-17T14:53:32.844Z,10.17
2018-05-17T14:56:00.460Z,10.47
2018-05-17T14:58:28.290Z,10.40
2018-05-17T15:00:56.101Z,10.23
2018-05-17T15:03:23.662Z,10.23
2018-05-17T15:05:50.852Z,11.23
2018-05-17T15:08:18.460Z,11.40
2018-05-17T15:10:45.981Z,9.67
2018-05-17T15:13:15.344Z,10.87
2018-05-17T15:15:42.534Z,9.40
2018-05-17T15:18:11.232Z,10.53
2018-05-17T15:20:41.816Z,9.83
2018-05-17T15:23:10.101Z,9.00
2018-05-17T15:25:37.759Z,8.83
2018-05-17T15:28:07.247Z,9.87
2018-05-17T15:30:35.550Z,10.07
2018-05-17T15:33:03.242Z,9.67
2018-05-17T15:35:31.621Z,9.47
2018-05-17T15:37:59.411Z,9.27
2018-05-17T15:40:27.347Z,9.37
2018-05-17T15:42:54.427Z,10.07
2018-05-17T15:45:21.633Z,9.00
2018-05-17T15:47:48.741Z,11.10
2018-05-17T15:50:16.690Z,9.83
2018-05-17T15:52:44.190Z,9.17
2018-05-17T15:55:11.760Z,9.63
2018-05-17T15:57:39.291Z,9.37
2018-05-17T16:00:08.796Z,10.10
2018-05-17T16:02:37.513Z,10.27
2018-05-17T16:05:05.309Z,9.90
2018-05-17T16:07:33.475Z,8.80
2018-05-17T16:10:00.957Z,8.90
2018-05-17T16:12:28.460Z,8.90
2018-05-17T16:14:55.864Z,8.90
2018-05-17T16:17:23.410Z,10.37
2018-05-17T16:19:50.900Z,9.90
2018-05-17T16:22:18.400Z,9.30
2018-05-17T16:24:45.912Z,9.73
2018-05-17T16:27:14.266Z,10.63
2018-05-17T16:29:41.925Z,10.17
2018-05-17T16:32:09.710Z,11.40
2018-05-17T16:34:37.291Z,10.53
2018-05-17T16:37:05.182Z,10.63
2018-05-17T16:39:32.932Z,12.63
2018-05-17T16:42:00.742Z,10.67
2018-05-17T16:44:28.260Z,10.60
2018-05-17T16:46:55.900Z,12.03
2018-05-17T16:49:24.131Z,13.23
2018-05-17T16:51:51.660Z,12.33
2018-05-17T16:54:19.566Z,12.33
2018-05-17T16:56:47.180Z,11.87
2018-05-17T16:59:14.882Z,11.93
2018-05-17T17:01:42.482Z,12.33
2018-05-17T17:04:10.802Z,11.33
2018-05-17T17:06:38.262Z,11.83
2018-05-17T17:09:06.003Z,11.23
2018-05-17T17:11:33.502Z,10.67
2018-05-17T17:14:01.081Z,11.17
2018-05-17T17:16:28.742Z,10.37
2018-05-17T17:18:56.141Z,10.40
2018-05-17T17:21:23.580Z,10.37
2018-05-17T17:23:51.920Z,10.50
2018-05-17T17:26:19.252Z,10.60
2018-05-17T17:28:46.730Z,11.03
2018-05-17T17:31:14.280Z,10.23
2018-05-17T17:33:41.792Z,8.37
2018-05-17T17:36:09.241Z,7.50
2018-05-17T17:38:36.701Z,7.03
2018-05-17T17:41:04.932Z,7.80
2018-05-17T17:43:32.499Z,7.50
2018-05-17T17:46:00.504Z,7.50
2018-05-17T17:48:27.711Z,7.13
2018-05-17T17:50:55.550Z,6.63
2018-05-17T17:53:23.100Z,7.03
2018-05-17T17:55:50.630Z,6.70
2018-05-17T17:58:19.004Z,7.03
2018-05-17T18:00:47.181Z,6.60
2018-05-17T18:03:15.650Z,6.73
2018-05-17T18:05:42.860Z,7.30
2018-05-17T18:08:10.569Z,6.67
2018-05-17T18:10:38.390Z,7.37
2018-05-17T18:13:09.824Z,7.13
2018-05-17T18:15:37.121Z,9.90
2018-05-17T18:18:04.781Z,7.50
2018-05-17T18:20:32.210Z,7.60
2018-05-17T18:23:01.962Z,7.97
2018-05-17T18:25:29.960Z,7.80
2018-05-17T18:27:57.721Z,8.57
2018-05-17T18:30:25.490Z,8.33
2018-05-17T18:32:53.601Z,7.50
2018-05-17T18:35:22.779Z,8.80
2018-05-17T18:37:50.170Z,8.13
2018-05-17T18:40:17.480Z,8.17
2018-05-17T18:42:45.051Z,8.07
2018-05-17T18:45:12.620Z,7.63
2018-05-17T18:47:40.081Z,7.97
2018-05-17T18:50:07.671Z,8.87
2018-05-17T18:52:35.160Z,8.90
2018-05-17T18:55:06.402Z,8.23
2018-05-17T18:57:33.700Z,8.23
2018-05-17T19:00:01.250Z,7.93
2018-05-17T19:02:28.750Z,8.73
2018-05-17T19:04:56.097Z,8.53
2018-05-17T19:07:24.370Z,9.60
2018-05-17T19:09:52.742Z,10.80
2018-05-17T19:12:20.530Z,10.90
2018-05-17T19:14:48.631Z,10.67
2018-05-17T19:17:15.980Z,11.43
2018-05-17T19:19:43.302Z,10.97
2018-05-17T19:22:12.542Z,10.90
2018-05-17T19:24:40.360Z,8.80
2018-05-17T19:27:11.077Z,7.77
2018-05-17T19:29:38.512Z,8.03
2018-05-17T19:32:05.875Z,9.47
2018-05-17T19:34:34.482Z,8.97
2018-05-17T19:37:04.307Z,9.07
2018-05-17T19:39:32.850Z,9.87
2018-05-17T19:42:00.300Z,10.13
2018-05-17T19:44:27.710Z,10.87
2018-05-17T19:46:56.061Z,10.93
2018-05-17T19:49:23.576Z,11.53
2018-05-17T19:51:50.891Z,12.23
2018-05-17T19:54:18.351Z,11.57
2018-05-17T19:56:46.521Z,12.60
2018-05-17T19:59:15.690Z,12.40
2018-05-17T20:01:45.049Z,13.13
2018-05-17T20:04:12.622Z,13.10
2018-05-17T20:06:41.640Z,15.27
2018-05-17T20:09:09.120Z,15.03
2018-05-17T20:11:36.482Z,14.30
2018-05-17T20:14:04.930Z,14.57
2018-05-17T20:16:32.681Z,14.13
2018-05-17T20:19:00.960Z,15.27
2018-05-17T20:21:31.750Z,14.40
2018-05-17T20:23:59.611Z,16.87
2018-05-17T20:26:27.010Z,17.23
2018-05-17T20:28:56.290Z,16.20
2018-05-17T20:31:23.660Z,17.07
2018-05-17T20:33:51.221Z,16.60
2018-05-17T20:36:21.347Z,17.57
2018-05-17T20:38:48.769Z,16.37
2018-05-17T20:41:16.599Z,18.80
2018-05-17T20:43:44.969Z,17.77
2018-05-17T20:46:12.451Z,19.03
2018-05-17T20:48:40.579Z,18.73
2018-05-17T20:51:07.910Z,18.93
2018-05-17T20:53:37.760Z,19.37
2018-05-17T20:56:04.912Z,18.27
2018-05-17T20:58:34.000Z,18.23
2018-05-17T21:01:01.571Z,18.47
2018-05-17T21:03:33.000Z,20.53
2018-05-17T21:06:00.490Z,18.47
2018-05-17T21:08:28.050Z,17.50
2018-05-17T21:10:55.323Z,19.37
2018-05-17T21:13:24.650Z,17.63
2018-05-17T21:15:52.901Z,18.53
2018-05-17T21:18:20.250Z,18.60
2018-05-17T21:20:47.600Z,18.57
2018-05-17T21:23:15.501Z,18.07
2018-05-17T21:25:42.850Z,18.50
2018-05-17T21:28:10.181Z,18.87
2018-05-17T21:30:37.442Z,19.47
2018-05-17T21:33:04.951Z,19.40
2018-05-17T21:35:32.341Z,19.10
2018-05-17T21:37:59.690Z,18.63
2018-05-17T21:40:27.101Z,19.73
2018-05-17T21:42:54.505Z,19.83
2018-05-17T21:45:24.871Z,19.80
2018-05-17T21:47:55.160Z,19.43
2018-05-17T21:50:22.720Z,20.03
2018-05-17T21:52:50.061Z,20.23
2018-05-17T21:55:19.540Z,20.93
2018-05-17T21:57:47.992Z,20.93
2018-05-17T22:00:16.150Z,21.23
2018-05-17T22:02:43.520Z,21.70
2018-05-17T22:05:10.860Z,22.53
2018-05-17T22:07:38.226Z,22.40
2018-05-17T22:10:05.780Z,23.63
2018-05-17T22:12:36.061Z,22.60
2018-05-17T22:15:04.352Z,23.60
2018-05-17T22:17:32.690Z,23.83
2018-05-17T22:20:00.792Z,24.70
2018-05-17T22:22:29.752Z,24.23
2018-05-17T22:24:57.881Z,24.40
2018-05-17T22:27:25.271Z,23.17
2018-05-17T22:29:52.670Z,24.73
2018-05-17T22:32:20.141Z,23.93
2018-05-17T22:34:49.242Z,24.53
2018-05-17T22:37:16.752Z,26.43
2018-05-17T22:39:45.561Z,26.53
2018-05-17T22:42:13.661Z,26.27
2018-05-17T22:44:41.182Z,26.97
2018-05-17T22:47:11.110Z,27.33
2018-05-17T22:49:38.580Z,29.23
2018-05-17T22:52:05.960Z,29.53
2018-05-17T22:54:33.320Z,30.17
2018-05-17T22:57:11.267Z,30.13
2018-05-17T22:59:39.340Z,31.60
2018-05-17T23:02:07.391Z,31.07
2018-05-17T23:04:35.390Z,31.33
2018-05-17T23:07:03.091Z,32.40
2018-05-17T23:09:30.661Z,31.27
2018-05-17T23:11:57.991Z,33.03
2018-05-17T23:14:25.830Z,32.37
2018-05-17T23:16:56.091Z,33.03
2018-05-17T23:19:23.682Z,33.27
2018-05-17T23:21:52.020Z,33.57
2018-05-17T23:24:19.470Z,33.17
2018-05-17T23:26:47.180Z,33.53
2018-05-17T23:29:14.742Z,33.33
2018-05-17T23:31:44.581Z,36.20
2018-05-17T23:34:12.300Z,34.23
2018-05-17T23:36:41.470Z,33.70
2018-05-17T23:39:11.403Z,34.03
2018-05-17T23:41:45.591Z,36.13
2018-05-17T23:44:13.192Z,35.47
2018-05-17T23:46:42.180Z,36.00
2018-05-17T23:49:09.540Z,37.57
2018-05-17T23:51:36.841Z,39.57
2018-05-17T23:54:04.150Z,40.30
2018-05-17T23:56:31.890Z,45.83
2018-05-17T23:58:59.361Z,41.57
